createdAt,value
2022-10-03T00:01:20.508Z,23.27
2022-10-03T00:04:00.027Z,25.98
2022-10-03T00:06:47.679Z,24.83
2022-10-03T00:09:35.541Z,24.10
2022-10-03T00:12:20.690Z,23.08
2022-10-03T00:14:59.409Z,23.25
2022-10-03T00:17:40.606Z,25.95
2022-10-03T00:20:33.043Z,27.42
2022-10-03T00:23:11.431Z,32.00
2022-10-03T00:25:47.841Z,26.40
2022-10-03T00:28:29.751Z,26.75
2022-10-03T00:31:15.382Z,26.17
2022-10-03T00:34:02.855Z,25.75
2022-10-03T00:36:44.419Z,20.05
2022-10-03T00:39:40.852Z,23.70
2022-10-03T00:43:04.365Z,22.42
2022-10-03T00:45:57.977Z,22.13
2022-10-03T00:48:59.903Z,20.67
2022-10-03T00:51:44.275Z,23.45
2022-10-03T00:54:38.307Z,22.52
2022-10-03T00:57:36.342Z,23.63
2022-10-03T01:00:20.639Z,28.75
2022-10-03T01:03:16.089Z,26.73
2022-10-03T01:06:03.685Z,24.70
2022-10-03T01:08:59.599Z,28.17
2022-10-03T01:11:43.753Z,24.88
2022-10-03T01:14:26.157Z,28.33
2022-10-03T01:17:06.905Z,23.65
2022-10-03T01:20:05.890Z,24.92
2022-10-03T01:23:08.622Z,24.15
2022-10-03T01:25:43.525Z,24.25
2022-10-03T01:29:04.628Z,22.20
2022-10-03T01:31:45.471Z,21.17
2022-10-03T01:34:24.631Z,22.02
2022-10-03T01:37:07.530Z,19.00
2022-10-03T01:39:45.006Z,19.95
2022-10-03T01:42:20.674Z,19.90
2022-10-03T01:45:13.762Z,23.60
2022-10-03T01:47:51.510Z,23.25
2022-10-03T01:50:28.175Z,22.33
2022-10-03T01:53:04.645Z,27.00
2022-10-03T01:55:44.274Z,25.50
2022-10-03T01:58:21.930Z,24.38
2022-10-03T02:01:01.823Z,25.13
2022-10-03T02:03:37.965Z,20.48
2022-10-03T02:06:17.494Z,21.88
2022-10-03T02:08:54.765Z,23.30
2022-10-03T02:11:34.945Z,22.00
2022-10-03T02:14:20.006Z,21.05
2022-10-03T02:17:02.057Z,27.52
2022-10-03T02:19:39.467Z,21.83
2022-10-03T02:22:18.249Z,24.83
2022-10-03T02:24:55.407Z,25.02
2022-10-03T02:28:00.993Z,24.50
2022-10-03T02:30:38.603Z,22.55
2022-10-03T02:33:45.683Z,25.20
2022-10-03T02:36:38.449Z,25.80
2022-10-03T02:39:25.218Z,29.77
2022-10-03T02:42:33.522Z,23.45
2022-10-03T02:45:43.404Z,25.27
2022-10-03T02:48:54.855Z,23.67
2022-10-03T02:51:47.115Z,27.75
2022-10-03T02:54:46.793Z,26.10
2022-10-03T02:57:54.492Z,27.52
2022-10-03T03:00:25.391Z,29.38
2022-10-03T03:03:16.978Z,25.95
2022-10-03T03:06:20.642Z,27.00
2022-10-03T03:09:04.615Z,23.42
2022-10-03T03:12:15.442Z,22.45
2022-10-03T03:15:22.741Z,23.25
2022-10-03T03:17:59.662Z,21.23
2022-10-03T03:20:43.697Z,24.75
2022-10-03T03:23:46.885Z,23.13
2022-10-03T03:26:50.716Z,29.08
2022-10-03T03:29:31.895Z,22.08
2022-10-03T03:32:11.420Z,19.08
2022-10-03T03:34:49.382Z,23.75
2022-10-03T03:37:29.250Z,23.15
2022-10-03T03:40:16.110Z,22.15
2022-10-03T03:43:05.943Z,22.08
2022-10-03T03:45:48.485Z,25.08
2022-10-03T03:48:42.772Z,23.23
2022-10-03T03:51:24.683Z,22.33
2022-10-03T03:54:22.371Z,23.60
2022-10-03T03:57:02.951Z,24.80
2022-10-03T03:59:56.603Z,25.60
2022-10-03T04:02:39.499Z,23.63
2022-10-03T04:05:19.090Z,25.08
2022-10-03T04:08:12.017Z,26.38
2022-10-03T04:10:53.347Z,26.02
2022-10-03T04:13:36.977Z,24.55
2022-10-03T04:16:42.809Z,32.78
2022-10-03T04:19:19.223Z,29.58
2022-10-03T04:22:09.498Z,29.85
2022-10-03T04:25:01.411Z,30.48
2022-10-03T04:27:46.182Z,29.13
2022-10-03T04:33:10.441Z,30.75
2022-10-03T04:36:21.811Z,29.40
2022-10-03T04:39:03.788Z,29.08
2022-10-03T04:41:43.627Z,28.27
2022-10-03T04:44:30.271Z,30.70
2022-10-03T04:47:05.121Z,28.67
2022-10-03T04:49:44.508Z,30.35
2022-10-03T04:52:22.233Z,30.55
2022-10-03T04:55:05.140Z,29.15
2022-10-03T04:57:44.064Z,33.70
2022-10-03T05:00:28.350Z,27.30
2022-10-03T05:03:06.732Z,29.85
2022-10-03T05:05:55.094Z,31.70
2022-10-03T05:08:41.091Z,26.75
2022-10-03T05:11:18.951Z,38.08
2022-10-03T05:14:03.346Z,30.35
2022-10-03T05:16:43.054Z,33.03
2022-10-03T05:19:47.845Z,32.80
2022-10-03T05:22:40.305Z,32.28
2022-10-03T05:25:34.023Z,33.40
2022-10-03T05:28:15.521Z,35.95
2022-10-03T05:30:53.413Z,31.95
2022-10-03T05:33:35.590Z,34.17
2022-10-03T05:36:16.402Z,26.73
2022-10-03T05:39:18.002Z,31.80
2022-10-03T05:42:17.794Z,31.25
2022-10-03T05:44:48.088Z,33.55
2022-10-03T05:47:41.639Z,32.78
2022-10-03T05:50:43.312Z,32.90
2022-10-03T05:53:44.257Z,32.58
2022-10-03T05:56:31.647Z,30.25
2022-10-03T05:59:30.743Z,28.92
2022-10-03T06:02:26.419Z,26.08
2022-10-03T06:05:29.339Z,30.98
2022-10-03T06:08:41.850Z,31.83
2022-10-03T06:11:45.828Z,29.02
2022-10-03T06:14:38.731Z,30.10
2022-10-03T06:17:31.261Z,28.35
2022-10-03T06:20:14.321Z,37.42
2022-10-03T06:23:15.075Z,32.75
2022-10-03T06:26:23.423Z,29.38
2022-10-03T06:29:26.200Z,27.08
2022-10-03T06:32:41.607Z,31.08
2022-10-03T06:35:35.540Z,30.77
2022-10-03T06:38:48.071Z,31.73
2022-10-03T06:41:55.775Z,28.58
2022-10-03T06:45:01.306Z,32.45
2022-10-03T06:47:44.751Z,30.88
2022-10-03T06:50:35.714Z,32.60
2022-10-03T06:53:48.303Z,31.70
2022-10-03T06:56:51.435Z,32.83
2022-10-03T06:59:51.722Z,27.77
2022-10-03T07:02:53.159Z,36.83
2022-10-03T07:05:54.099Z,25.92
2022-10-03T07:09:14.643Z,33.35
2022-10-03T07:12:19.414Z,27.67
2022-10-03T07:15:14.968Z,32.17
2022-10-03T07:18:10.519Z,33.15
2022-10-03T07:21:18.967Z,30.58
2022-10-03T07:24:14.530Z,25.27
2022-10-03T07:27:09.884Z,22.08
2022-10-03T07:32:48.516Z,20.65
2022-10-03T07:35:55.688Z,25.30
2022-10-03T07:39:18.376Z,23.15
2022-10-03T07:42:14.076Z,23.20
2022-10-03T07:45:08.821Z,17.33
2022-10-03T07:48:09.239Z,23.30
2022-10-03T07:50:53.626Z,19.05
2022-10-03T07:53:46.035Z,18.58
2022-10-03T07:56:38.602Z,15.95
2022-10-03T07:59:35.283Z,16.80
2022-10-03T08:02:29.449Z,19.65
2022-10-03T08:05:20.845Z,17.07
2022-10-03T08:08:09.492Z,19.75
2022-10-03T08:11:08.708Z,16.45
2022-10-03T08:13:57.259Z,17.85
2022-10-03T08:16:49.418Z,18.42
2022-10-03T08:19:34.988Z,16.55
2022-10-03T08:22:14.260Z,23.92
2022-10-03T08:25:13.116Z,13.18
2022-10-03T08:28:03.279Z,19.05
2022-10-03T08:30:48.292Z,18.42
2022-10-03T08:33:39.009Z,17.70
2022-10-03T08:36:38.893Z,15.43
2022-10-03T08:39:34.903Z,14.57
2022-10-03T08:42:38.748Z,14.27
2022-10-03T08:45:47.018Z,13.85
2022-10-03T08:48:47.500Z,19.20
2022-10-03T08:51:47.892Z,13.02
2022-10-03T08:54:49.048Z,14.48
2022-10-03T08:57:57.514Z,13.32
2022-10-03T09:00:37.498Z,14.07
2022-10-03T09:03:40.704Z,15.05
2022-10-03T09:10:03.826Z,14.50
2022-10-03T09:13:03.184Z,14.13
2022-10-03T09:16:23.034Z,12.63
2022-10-03T09:19:10.248Z,11.32
2022-10-03T09:22:06.377Z,13.05
2022-10-03T09:25:08.902Z,12.20
2022-10-03T09:27:55.115Z,11.35
2022-10-03T09:30:29.470Z,15.15
2022-10-03T09:36:12.877Z,12.75
2022-10-03T09:39:09.477Z,12.65
2022-10-03T09:42:07.833Z,11.45
2022-10-03T09:45:01.013Z,12.48
2022-10-03T09:47:54.522Z,14.52
2022-10-03T09:51:04.218Z,19.67
2022-10-03T09:54:10.088Z,11.35
2022-10-03T09:57:11.461Z,13.27
2022-10-03T10:00:03.765Z,14.90
2022-10-03T10:03:03.420Z,16.60
2022-10-03T10:06:24.549Z,14.98
2022-10-03T10:09:26.930Z,19.85
2022-10-03T10:12:28.125Z,16.58
2022-10-03T10:15:16.340Z,14.00
2022-10-03T10:18:16.469Z,12.80
2022-10-03T10:21:29.588Z,11.20
2022-10-03T10:24:22.884Z,15.15
2022-10-03T10:27:22.610Z,20.63
2022-10-03T10:30:22.473Z,15.82
2022-10-03T10:33:28.521Z,13.63
2022-10-03T10:36:19.723Z,10.88
2022-10-03T10:39:25.705Z,7.07
2022-10-03T10:42:28.304Z,12.82
2022-10-03T10:45:41.861Z,26.20
2022-10-03T10:49:03.908Z,11.77
2022-10-03T10:52:03.641Z,12.82
2022-10-03T10:55:10.537Z,9.57
2022-10-03T10:58:12.988Z,13.98
2022-10-03T11:01:04.191Z,14.73
2022-10-03T11:04:15.796Z,15.82
2022-10-03T11:07:12.450Z,15.32
2022-10-03T11:10:31.103Z,9.95
2022-10-03T11:13:35.452Z,9.60
2022-10-03T11:16:48.816Z,7.25
2022-10-03T11:20:06.026Z,16.73
2022-10-03T11:23:07.303Z,8.50
2022-10-03T11:26:07.901Z,12.13
2022-10-03T11:29:07.898Z,11.50
2022-10-03T11:32:08.258Z,12.07
2022-10-03T11:35:21.235Z,12.13
2022-10-03T11:37:55.008Z,10.07
2022-10-03T11:40:38.149Z,9.93
2022-10-03T11:43:47.116Z,12.45
2022-10-03T11:46:31.791Z,7.28
2022-10-03T11:51:48.242Z,10.48
2022-10-03T11:54:32.193Z,9.40
2022-10-03T11:57:10.993Z,9.57
2022-10-03T12:00:02.709Z,8.77
2022-10-03T12:03:07.160Z,10.55
2022-10-03T12:05:52.740Z,11.45
2022-10-03T12:08:43.507Z,10.25
2022-10-03T12:11:20.588Z,7.45
2022-10-03T12:14:11.471Z,11.07
2022-10-03T12:17:05.702Z,8.80
2022-10-03T12:19:41.312Z,8.35
2022-10-03T12:22:35.675Z,7.03
2022-10-03T12:25:19.365Z,6.57
2022-10-03T12:27:59.006Z,9.48
2022-10-03T12:30:32.873Z,5.13
2022-10-03T12:33:16.450Z,5.55
2022-10-03T12:35:52.735Z,8.25
2022-10-03T12:38:41.363Z,9.43
2022-10-03T12:41:24.275Z,6.50
2022-10-03T12:44:08.512Z,6.60
2022-10-03T12:46:48.001Z,4.97
2022-10-03T12:49:22.585Z,10.15
2022-10-03T12:52:00.309Z,5.88
2022-10-03T12:54:49.886Z,8.23
2022-10-03T12:57:52.695Z,10.98
2022-10-03T13:00:28.827Z,9.20
2022-10-03T13:03:26.045Z,6.63
2022-10-03T13:06:50.956Z,9.10
2022-10-03T13:09:28.454Z,10.88
2022-10-03T13:12:06.308Z,5.35
2022-10-03T13:15:06.685Z,5.75
2022-10-03T13:17:41.774Z,4.50
2022-10-03T13:20:20.045Z,8.68
2022-10-03T13:23:03.166Z,7.55
2022-10-03T13:25:41.726Z,6.85
2022-10-03T13:28:18.783Z,5.70
2022-10-03T13:30:53.719Z,5.72
2022-10-03T13:33:27.957Z,3.25
2022-10-03T13:36:05.510Z,7.40
2022-10-03T13:39:05.728Z,5.72
2022-10-03T13:41:48.718Z,5.72
2022-10-03T13:44:28.299Z,6.35
2022-10-03T13:47:05.627Z,4.53
2022-10-03T13:49:40.474Z,5.72
2022-10-03T13:52:21.715Z,5.05
2022-10-03T13:55:26.394Z,6.07
2022-10-03T13:58:26.195Z,6.55
2022-10-03T14:01:36.409Z,5.53
2022-10-03T14:04:38.507Z,5.90
2022-10-03T14:07:18.696Z,7.82
2022-10-03T14:10:13.045Z,5.53
2022-10-03T14:12:56.148Z,4.70
2022-10-03T14:15:48.999Z,7.72
2022-10-03T14:18:35.896Z,5.43
2022-10-03T14:21:28.733Z,5.03
2022-10-03T14:24:06.213Z,4.90
2022-10-03T14:26:41.091Z,6.18
2022-10-03T14:29:21.550Z,7.47
2022-10-03T14:31:58.707Z,5.18
2022-10-03T14:34:44.948Z,4.68
2022-10-03T14:37:25.076Z,4.20
2022-10-03T14:40:06.277Z,3.95
2022-10-03T14:42:51.386Z,5.85
2022-10-03T14:45:26.465Z,6.32
2022-10-03T14:48:00.137Z,4.72
2022-10-03T14:50:34.357Z,7.57
2022-10-03T14:53:08.151Z,6.85
2022-10-03T14:55:46.680Z,6.10
2022-10-03T14:58:22.846Z,4.95
2022-10-03T15:00:58.815Z,4.97
2022-10-03T15:03:33.998Z,5.85
2022-10-03T15:06:34.422Z,7.00
2022-10-03T15:09:07.527Z,5.10
2022-10-03T15:11:39.722Z,5.15
2022-10-03T15:14:12.808Z,7.47
2022-10-03T15:16:49.072Z,5.03
2022-10-03T15:19:23.011Z,5.18
2022-10-03T15:21:56.512Z,4.80
2022-10-03T15:24:31.731Z,5.10
2022-10-03T15:27:06.394Z,7.70
2022-10-03T15:29:37.509Z,7.43
2022-10-03T15:32:10.280Z,7.47
2022-10-03T15:34:48.568Z,4.30
2022-10-03T15:37:24.935Z,5.07
2022-10-03T15:39:57.096Z,4.30
2022-10-03T15:42:32.983Z,6.93
2022-10-03T15:45:06.485Z,4.80
2022-10-03T15:47:40.099Z,5.33
2022-10-03T15:50:19.775Z,5.13
2022-10-03T15:53:01.456Z,3.55
2022-10-03T15:55:42.394Z,10.40
2022-10-03T15:58:19.050Z,5.47
2022-10-03T16:00:56.422Z,4.38
2022-10-03T16:03:32.618Z,6.20
2022-10-03T16:06:10.059Z,7.00
2022-10-03T16:08:53.057Z,6.05
2022-10-03T16:11:26.470Z,5.72
2022-10-03T16:14:13.406Z,3.30
2022-10-03T16:16:49.547Z,4.30
2022-10-03T16:19:30.276Z,4.63
2022-10-03T16:22:13.211Z,5.28
2022-10-03T16:24:52.239Z,6.70
2022-10-03T16:27:25.959Z,7.05
2022-10-03T16:30:00.614Z,6.03
2022-10-03T16:32:33.802Z,8.77
2022-10-03T16:35:05.331Z,8.80
2022-10-03T16:37:41.855Z,7.82
2022-10-03T16:40:24.619Z,12.75
2022-10-03T16:42:58.068Z,10.10
2022-10-03T16:45:32.103Z,11.93
2022-10-03T16:48:18.102Z,16.27
2022-10-03T16:50:52.588Z,13.05
2022-10-03T16:56:02.127Z,5.65
2022-10-03T16:58:33.847Z,7.97
2022-10-03T17:04:02.868Z,7.05
2022-10-03T17:06:40.756Z,7.43
2022-10-03T17:09:27.985Z,9.00
2022-10-03T17:12:02.651Z,5.88
2022-10-03T17:14:39.321Z,4.75
2022-10-03T17:17:19.116Z,7.80
2022-10-03T17:19:53.658Z,8.57
2022-10-03T17:22:27.274Z,10.05
2022-10-03T17:25:05.721Z,13.02
2022-10-03T17:27:41.480Z,7.75
2022-10-03T17:30:23.706Z,12.98
2022-10-03T17:32:59.855Z,15.05
2022-10-03T17:35:42.581Z,9.30
2022-10-03T17:41:23.687Z,12.90
2022-10-03T17:46:45.887Z,11.25
2022-10-03T17:49:25.254Z,14.20
2022-10-03T17:51:57.729Z,11.15
2022-10-03T17:54:31.502Z,9.77
2022-10-03T17:57:07.146Z,13.23
2022-10-03T17:59:50.609Z,12.25
2022-10-03T18:02:26.753Z,15.93
2022-10-03T18:05:02.991Z,11.45
2022-10-03T18:07:33.522Z,16.15
2022-10-03T18:10:03.775Z,17.05
2022-10-03T18:12:38.498Z,17.38
2022-10-03T18:15:53.144Z,18.27
2022-10-03T18:18:48.089Z,16.00
2022-10-03T18:21:27.610Z,13.07
2022-10-03T18:24:18.018Z,15.23
2022-10-03T18:26:54.353Z,14.82
2022-10-03T18:29:31.783Z,15.75
2022-10-03T18:32:07.345Z,16.35
2022-10-03T18:34:47.857Z,13.88
2022-10-03T18:37:55.641Z,15.25
2022-10-03T18:40:31.416Z,17.17
2022-10-03T18:43:02.242Z,13.30
2022-10-03T18:45:34.636Z,19.15
2022-10-03T18:48:12.673Z,20.70
2022-10-03T18:51:00.235Z,21.27
2022-10-03T18:53:37.981Z,20.50
2022-10-03T18:56:13.926Z,21.05
2022-10-03T18:58:48.439Z,18.23
2022-10-03T19:03:55.686Z,21.90
2022-10-03T19:06:32.047Z,20.95
2022-10-03T19:09:08.695Z,19.15
2022-10-03T19:11:46.056Z,18.65
2022-10-03T19:14:19.902Z,20.92
2022-10-03T19:17:18.197Z,20.20
2022-10-03T19:19:58.820Z,24.45
2022-10-03T19:22:33.734Z,19.48
2022-10-03T19:27:52.310Z,16.83
2022-10-03T19:30:24.744Z,15.65
2022-10-03T19:32:59.747Z,16.20
2022-10-03T19:35:31.144Z,18.25
2022-10-03T19:38:06.681Z,21.42
2022-10-03T19:40:46.530Z,21.23
2022-10-03T19:43:41.911Z,20.45
2022-10-03T19:46:28.507Z,19.73
2022-10-03T19:49:21.372Z,25.42
2022-10-03T19:51:51.682Z,21.98
2022-10-03T19:54:34.050Z,22.33
2022-10-03T19:57:05.769Z,24.63
2022-10-03T19:59:53.705Z,17.00
2022-10-03T20:02:25.353Z,19.10
2022-10-03T20:05:24.526Z,22.23
2022-10-03T20:08:02.372Z,20.25
2022-10-03T20:10:48.608Z,21.02
2022-10-03T20:13:18.526Z,19.48
2022-10-03T20:15:53.033Z,23.40
2022-10-03T20:18:28.420Z,17.92
2022-10-03T20:21:00.618Z,14.45
2022-10-03T20:23:35.885Z,17.77
2022-10-03T20:26:10.718Z,19.90
2022-10-03T20:28:55.714Z,18.23
2022-10-03T20:31:31.152Z,17.88
2022-10-03T20:34:04.181Z,15.98
2022-10-03T20:36:39.506Z,15.35
2022-10-03T20:39:16.380Z,19.42
2022-10-03T20:42:03.077Z,18.23
2022-10-03T20:44:51.809Z,15.98
2022-10-03T20:47:45.061Z,16.58
2022-10-03T20:50:25.058Z,19.15
2022-10-03T20:52:57.014Z,22.27
2022-10-03T20:55:29.800Z,17.15
2022-10-03T20:58:23.069Z,19.80
2022-10-03T21:00:59.567Z,17.70
2022-10-03T21:03:40.338Z,18.55
2022-10-03T21:06:22.325Z,18.85
2022-10-03T21:08:52.627Z,15.73
2022-10-03T21:11:25.131Z,27.42
2022-10-03T21:13:59.369Z,18.40
2022-10-03T21:16:31.196Z,21.35
2022-10-03T21:19:05.776Z,19.67
2022-10-03T21:24:18.346Z,14.05
2022-10-03T21:26:54.935Z,16.75
2022-10-03T21:29:31.109Z,18.85
2022-10-03T21:32:14.396Z,16.02
2022-10-03T21:34:55.421Z,15.40
2022-10-03T21:37:30.731Z,15.50
2022-10-03T21:40:12.115Z,18.48
2022-10-03T21:42:54.427Z,19.17
2022-10-03T21:45:31.721Z,17.98
2022-10-03T21:48:07.781Z,19.58
2022-10-03T21:50:49.024Z,21.15
2022-10-03T21:53:22.142Z,18.95
2022-10-03T21:56:14.994Z,18.20
2022-10-03T21:59:02.441Z,18.90
2022-10-03T22:01:40.577Z,21.17
2022-10-03T22:04:17.988Z,23.63
2022-10-03T22:06:57.852Z,21.23
2022-10-03T22:09:27.704Z,20.67
2022-10-03T22:12:02.036Z,19.83
2022-10-03T22:14:45.054Z,19.58
2022-10-03T22:17:24.322Z,19.65
2022-10-03T22:19:57.000Z,18.73
2022-10-03T22:22:42.337Z,25.55
2022-10-03T22:25:23.590Z,28.73
2022-10-03T22:28:02.918Z,18.25
2022-10-03T22:30:35.007Z,19.73
2022-10-03T22:33:15.692Z,20.20
2022-10-03T22:35:53.781Z,22.75
2022-10-03T22:38:29.350Z,21.02
2022-10-03T22:41:03.777Z,21.08
2022-10-03T22:43:37.234Z,24.08
2022-10-03T22:46:08.942Z,18.52
2022-10-03T22:48:45.505Z,19.83
2022-10-03T22:51:17.992Z,19.95
2022-10-03T22:53:57.038Z,19.70
2022-10-03T22:56:42.638Z,16.20
2022-10-03T22:59:16.070Z,21.70
2022-10-03T23:01:48.587Z,18.75
2022-10-03T23:04:30.135Z,16.15
2022-10-03T23:07:28.887Z,17.80
2022-10-03T23:10:14.657Z,21.77
2022-10-03T23:12:48.465Z,28.02
2022-10-03T23:15:21.611Z,28.83
2022-10-03T23:18:10.286Z,20.98
2022-10-03T23:21:01.015Z,24.63
2022-10-03T23:23:40.640Z,23.95
2022-10-03T23:26:36.253Z,24.98
2022-10-03T23:29:09.136Z,24.42
2022-10-03T23:32:00.051Z,21.30
2022-10-03T23:34:49.090Z,22.33
2022-10-03T23:37:46.486Z,22.30
2022-10-03T23:40:38.648Z,23.85
2022-10-03T23:43:28.133Z,21.35
2022-10-03T23:46:02.777Z,21.45
2022-10-03T23:48:41.769Z,23.75
2022-10-03T23:51:16.715Z,21.33
2022-10-03T23:53:51.407Z,36.10
2022-10-03T23:56:35.958Z,25.38
2022-10-03T23:59:23.248Z,21.05
